Terminal Aerodrome Forecast
Issued by NWS Hastings, NE

Home | Current Version | Previous Version | Text Only | Print | Product List | Glossary On
Versions: 1 2 3 4 5 6 7 8 9 10 11 12 13 14 15 16 17 18 19 20 21 22 23 24 25 26 27 28 29 30 31 32 33 34
000
FTUS43 KGID 081120
TAFGRI
TAF
KGRI 081120Z 0812/0912 33024G34KT P6SM BKN045
     FM081400 33025G35KT P6SM SCT045
     FM082200 33023G32KT P6SM SCT250
     FM090000 33017G24KT P6SM SCT250
     FM090500 32011KT P6SM SCT250=

USA.gov is the U.S. government's official web portal to all federal, state and local government web resources and services.